Time;durP1;ratioP1;P1;durP2;ratioP2;P2;SDS_P1;SDS_P2;PMS_P1;PMS_P2;Temp;Humidity;BMP_temperature;BMP_pressure;BME280_temperature;BME280_humidity;BME280_pressure;Samples;Min_cycle;Max_cycle;Signal;HPM_P1;HPM_P2
2023/04/30 00:01:09;;;;;;;18.38;9.40;;;;;;;7.21;85.55;102594.69;6046544;19;20512;-70
2023/04/30 00:03:14;;;;;;;19.10;9.90;;;;;;;7.24;85.17;102598.22;6046431;19;20241;-69
2023/04/30 00:05:24;;;;;;;16.25;8.52;;;;;;;7.23;85.68;102592.97;6047404;19;20456;-70
2023/04/30 00:07:29;;;;;;;17.20;9.70;;;;;;;7.23;85.68;102591.22;6042130;19;20211;-70
2023/04/30 00:09:35;;;;;;;21.13;10.80;;;;;;;7.23;85.87;102591.22;6045470;19;20428;-70
2023/04/30 00:11:40;;;;;;;18.15;9.95;;;;;;;7.21;85.71;102595.59;6044131;19;20086;-70
2023/04/30 00:13:46;;;;;;;18.65;9.38;;;;;;;7.22;85.45;102586.00;6044800;19;20410;-70
2023/04/30 00:15:51;;;;;;;20.08;9.75;;;;;;;7.23;85.44;102585.97;6050322;19;20003;-70
2023/04/30 00:17:56;;;;;;;20.40;9.77;;;;;;;7.17;85.81;102591.22;6055761;19;20476;-70
2023/04/30 00:20:01;;;;;;;17.85;9.55;;;;;;;7.16;85.77;102583.34;6047223;19;20537;-70
2023/04/30 00:22:09;;;;;;;20.25;10.32;;;;;;;7.11;85.87;102590.31;6050392;19;20279;-70
2023/04/30 00:24:14;;;;;;;18.98;10.13;;;;;;;7.05;86.35;102585.94;6046933;19;20128;-70
2023/04/30 00:26:21;;;;;;;18.42;10.18;;;;;;;6.99;86.22;102586.81;6054261;19;20750;-69
2023/04/30 00:28:27;;;;;;;17.65;10.10;;;;;;;6.94;86.74;102591.16;6051579;19;20288;-70
2023/04/30 00:30:32;;;;;;;16.45;9.13;;;;;;;6.93;86.49;102591.16;6056734;19;20450;-70
2023/04/30 00:32:38;;;;;;;22.35;10.60;;;;;;;6.90;86.63;102589.41;6057257;19;20094;-70
2023/04/30 00:34:44;;;;;;;21.80;10.50;;;;;;;6.91;86.87;102585.06;6058237;19;20044;-70
2023/04/30 00:36:49;;;;;;;17.63;10.02;;;;;;;6.88;86.94;102588.53;6060873;19;20007;-70
2023/04/30 00:38:57;;;;;;;17.60;9.13;;;;;;;6.86;87.73;102586.78;6061852;19;20126;-70
2023/04/30 00:41:03;;;;;;;18.17;10.00;;;;;;;6.82;87.33;102597.22;6064994;19;20015;-71
2023/04/30 00:43:08;;;;;;;16.88;9.38;;;;;;;6.75;87.02;102600.69;6059229;19;22188;-70
2023/04/30 00:45:13;;;;;;;17.63;9.93;;;;;;;6.68;87.78;102600.66;6053757;19;20007;-70
2023/04/30 00:47:23;;;;;;;20.58;10.18;;;;;;;6.63;88.03;102604.97;6056425;19;20342;-71
2023/04/30 00:49:28;;;;;;;20.17;9.75;;;;;;;6.60;88.17;102598.88;6060895;19;20039;-71
2023/04/30 00:51:34;;;;;;;21.00;10.50;;;;;;;6.58;88.33;102603.25;6059095;19;20040;-71
2023/04/30 00:53:41;;;;;;;17.48;9.25;;;;;;;6.58;87.52;102605.84;6052688;19;20055;-70
2023/04/30 00:55:50;;;;;;;21.02;9.45;;;;;;;6.59;87.67;102604.97;6052917;19;20326;-71
2023/04/30 00:57:55;;;;;;;18.00;10.00;;;;;;;6.56;87.54;102604.09;6054869;19;20132;-70
2023/04/30 01:00:01;;;;;;;18.35;10.10;;;;;;;6.48;88.08;102604.06;6052945;19;20011;-70
2023/04/30 01:02:07;;;;;;;22.25;10.20;;;;;;;6.45;88.01;102605.75;6055707;19;20039;-69
2023/04/30 01:04:12;;;;;;;16.15;9.00;;;;;;;6.41;87.29;102607.50;6053109;19;20538;-69
2023/04/30 01:06:17;;;;;;;19.90;10.02;;;;;;;6.38;87.81;102610.09;6051775;19;20416;-72
2023/04/30 01:08:23;;;;;;;20.67;10.32;;;;;;;6.40;89.56;102611.00;6048297;19;20018;-70
2023/04/30 01:10:34;;;;;;;21.05;11.20;;;;;;;6.44;88.66;102615.34;6054095;19;20043;-70
2023/04/30 01:12:49;;;;;;;19.13;10.90;;;;;;;6.46;88.54;102611.00;6056487;19;20468;-70
2023/04/30 01:15:02;;;;;;;26.13;11.73;;;;;;;6.46;88.77;102615.38;6055765;19;20188;-71
2023/04/30 01:17:13;;;;;;;23.23;11.40;;;;;;;6.51;88.38;102617.13;6054927;19;20293;-70
2023/04/30 01:19:44;;;;;;;25.90;11.30;;;;;;;6.53;88.78;102619.72;6055795;19;20236;-70
2023/04/30 01:21:50;;;;;;;19.77;10.55;;;;;;;6.53;88.84;102617.13;6052879;19;20540;-70
2023/04/30 01:24:34;;;;;;;20.35;11.65;;;;;;;6.55;89.29;102623.22;6055394;19;20724;-70
2023/04/30 01:26:54;;;;;;;22.45;10.55;;;;;;;6.53;88.83;102614.50;6055370;19;20117;-70
2023/04/30 01:29:05;;;;;;;23.60;11.85;;;;;;;6.50;89.42;102610.16;6059870;19;20036;-70
2023/04/30 01:31:15;;;;;;;24.83;12.48;;;;;;;6.49;89.05;102618.84;6053083;19;20475;-70
2023/04/30 01:33:20;;;;;;;24.85;11.68;;;;;;;6.44;89.69;102615.34;6059631;19;20675;-71
2023/04/30 01:35:39;;;;;;;21.70;12.27;;;;;;;6.41;89.78;102622.31;6058807;19;20011;-70
2023/04/30 01:37:54;;;;;;;25.20;11.93;;;;;;;6.40;89.58;102624.03;6054670;19;20385;-70
2023/04/30 01:40:21;;;;;;;23.00;11.90;;;;;;;6.36;89.75;102623.13;6055904;19;20495;-70
2023/04/30 01:42:32;;;;;;;20.50;11.60;;;;;;;6.33;89.64;102619.66;6053630;19;20464;-70
2023/04/30 01:45:05;;;;;;;24.17;11.20;;;;;;;6.29;89.44;102618.75;6054052;19;20201;-70
2023/04/30 01:47:20;;;;;;;20.88;11.43;;;;;;;6.29;90.42;102620.47;6056694;19;20014;-70
2023/04/30 01:49:32;;;;;;;24.27;11.98;;;;;;;6.28;90.10;102618.75;6054409;19;20414;-70
2023/04/30 01:51:42;;;;;;;21.50;12.10;;;;;;;6.29;90.19;102617.88;6057561;19;20444;-72
2023/04/30 01:53:48;;;;;;;23.65;11.85;;;;;;;6.27;89.68;102611.78;6047407;19;20495;-70
2023/04/30 01:55:59;;;;;;;22.50;12.23;;;;;;;6.27;90.89;102607.44;6053776;19;20074;-72
2023/04/30 01:58:09;;;;;;;23.65;12.90;;;;;;;6.27;90.24;102604.81;6053599;19;20043;-71
2023/04/30 02:00:24;;;;;;;20.83;11.45;;;;;;;6.30;91.12;102602.22;6052767;19;20196;-71
2023/04/30 02:02:29;;;;;;;23.77;13.13;;;;;;;6.26;90.19;102604.81;6048363;19;20033;-71
2023/04/30 02:04:35;;;;;;;27.23;11.65;;;;;;;6.29;90.60;102610.03;6053218;19;20381;-71
2023/04/30 02:06:41;;;;;;;25.35;11.73;;;;;;;6.26;90.39;102600.44;6051110;19;20022;-70
2023/04/30 02:08:48;;;;;;;26.92;12.70;;;;;;;6.27;91.19;102604.81;6053885;19;20207;-70
2023/04/30 02:10:53;;;;;;;28.17;13.80;;;;;;;6.26;91.08;102597.84;6054168;19;20367;-71
2023/04/30 02:12:58;;;;;;;25.70;12.93;;;;;;;6.26;91.95;102607.41;6052566;19;20223;-71
2023/04/30 02:15:05;;;;;;;20.75;11.30;;;;;;;6.23;91.36;102607.41;6050869;19;20043;-71
2023/04/30 02:17:12;;;;;;;23.75;12.02;;;;;;;6.13;91.09;102603.84;6052361;19;20778;-70
2023/04/30 02:19:18;;;;;;;29.85;12.88;;;;;;;6.07;91.28;102614.25;6055395;19;20006;-71
2023/04/30 02:21:23;;;;;;;22.50;12.18;;;;;;;6.02;90.85;102601.16;6056118;19;20274;-71
2023/04/30 02:23:29;;;;;;;22.90;12.85;;;;;;;5.96;91.65;102603.75;6054292;19;20010;-72
2023/04/30 02:25:37;;;;;;;23.60;12.88;;;;;;;5.90;91.31;102606.28;6049871;19;20538;-72
2023/04/30 02:27:42;;;;;;;27.55;14.07;;;;;;;5.86;90.92;102613.19;6047899;19;20486;-71
2023/04/30 02:29:47;;;;;;;25.35;12.85;;;;;;;5.77;90.81;102604.44;6050951;19;20014;-71
2023/04/30 02:31:53;;;;;;;23.95;12.93;;;;;;;5.76;90.91;102611.38;6052659;19;20162;-70
2023/04/30 02:34:00;;;;;;;24.05;11.98;;;;;;;5.79;92.09;102611.41;6057802;19;20499;-70
2023/04/30 02:36:06;;;;;;;25.38;12.50;;;;;;;5.81;92.15;102612.28;6050063;19;20106;-70
2023/04/30 02:38:12;;;;;;;26.00;13.38;;;;;;;5.82;92.23;102600.13;6049026;19;20300;-70
2023/04/30 02:40:17;;;;;;;22.95;12.45;;;;;;;5.80;92.17;102604.47;6052241;19;20723;-70
2023/04/30 02:42:26;;;;;;;25.30;14.32;;;;;;;5.82;92.74;102605.34;6030621;19;20537;-71
2023/04/30 02:44:31;;;;;;;26.67;13.80;;;;;;;5.79;91.89;102592.28;6050871;19;20228;-70
2023/04/30 02:46:37;;;;;;;28.45;13.15;;;;;;;5.81;92.36;102601.00;6046346;19;20085;-70
2023/04/30 02:48:42;;;;;;;29.90;13.48;;;;;;;5.80;91.79;102604.47;6050902;19;20260;-70
2023/04/30 02:50:52;;;;;;;30.83;15.43;;;;;;;5.80;93.26;102596.66;6050467;19;20504;-71
2023/04/30 02:52:57;;;;;;;25.80;13.35;;;;;;;5.79;91.83;102598.34;6051616;19;20011;-71
2023/04/30 02:55:03;;;;;;;26.33;14.15;;;;;;;5.79;92.79;102594.88;6050836;19;20181;-71
2023/04/30 02:57:08;;;;;;;25.95;13.00;;;;;;;5.78;92.96;102600.97;6053691;19;20242;-70
2023/04/30 02:59:13;;;;;;;27.05;14.60;;;;;;;5.81;93.07;102599.25;6054726;19;20010;-72
2023/04/30 03:01:19;;;;;;;26.45;12.57;;;;;;;5.80;92.58;102592.28;6055475;19;20002;-70
2023/04/30 03:03:24;;;;;;;27.35;13.95;;;;;;;5.85;93.02;102598.41;6056407;19;20196;-72
2023/04/30 03:05:30;;;;;;;29.10;14.70;;;;;;;5.82;93.05;102593.19;6058500;19;20274;-72
2023/04/30 03:07:38;;;;;;;30.20;13.50;;;;;;;5.84;92.34;102599.25;6060329;19;20279;-70
2023/04/30 03:09:43;;;;;;;27.23;14.25;;;;;;;5.80;92.80;102601.88;6056078;19;20006;-70
2023/04/30 03:11:48;;;;;;;27.83;13.90;;;;;;;5.76;92.44;102606.16;6058476;19;20044;-70
2023/04/30 03:13:54;;;;;;;29.73;14.38;;;;;;;5.79;93.72;102603.56;6056961;19;20011;-70
2023/04/30 03:16:00;;;;;;;34.30;15.38;;;;;;;5.74;92.83;102607.91;6055715;19;20013;-70
2023/04/30 03:18:06;;;;;;;26.15;14.60;;;;;;;5.75;93.86;102612.25;6056422;19;20033;-70
2023/04/30 03:20:13;;;;;;;28.92;14.35;;;;;;;5.76;93.63;102616.59;6056539;19;20508;-70
2023/04/30 03:22:19;;;;;;;29.75;14.77;;;;;;;5.78;92.89;102612.28;6061021;19;20642;-70
2023/04/30 03:24:29;;;;;;;31.05;15.75;;;;;;;5.80;93.68;102613.16;6055685;19;20015;-69
2023/04/30 03:26:34;;;;;;;31.10;14.90;;;;;;;5.84;93.33;102608.84;6056776;19;20286;-72
2023/04/30 03:28:42;;;;;;;32.85;16.10;;;;;;;5.82;93.56;102605.34;6054220;19;20014;-72
2023/04/30 03:30:48;;;;;;;32.22;15.55;;;;;;;5.80;93.83;102599.25;6054578;19;20261;-71
2023/04/30 03:32:53;;;;;;;34.28;17.42;;;;;;;5.78;93.75;102595.75;6055847;19;20087;-72
2023/04/30 03:34:58;;;;;;;33.75;15.45;;;;;;;5.76;93.55;102600.06;6056569;19;20014;-72
2023/04/30 03:37:04;;;;;;;34.25;14.73;;;;;;;5.78;94.18;102604.44;6058620;19;20014;-72
2023/04/30 03:39:10;;;;;;;31.73;14.60;;;;;;;5.73;93.69;102599.19;6054911;19;20414;-72
2023/04/30 03:41:18;;;;;;;33.65;14.60;;;;;;;5.74;93.89;102602.69;6054318;19;20047;-72
2023/04/30 03:43:24;;;;;;;35.20;15.68;;;;;;;5.71;94.05;102608.75;6056965;19;20333;-72
2023/04/30 03:45:30;;;;;;;28.35;14.45;;;;;;;5.68;93.76;102605.22;6053525;19;20497;-72
2023/04/30 03:47:35;;;;;;;29.58;15.07;;;;;;;5.67;94.13;102603.50;6051462;19;20010;-71
2023/04/30 03:49:41;;;;;;;27.00;13.70;;;;;;;5.63;93.74;102606.94;6049284;19;20531;-72
2023/04/30 03:51:46;;;;;;;29.65;15.82;;;;;;;5.54;93.29;102605.13;6047304;19;20259;-71
2023/04/30 03:53:52;;;;;;;29.98;15.45;;;;;;;5.48;93.45;102597.25;6045109;19;20308;-71
2023/04/30 03:55:57;;;;;;;32.83;15.02;;;;;;;5.49;94.22;102594.66;6043337;19;20281;-71
2023/04/30 03:58:05;;;;;;;31.55;13.60;;;;;;;5.54;93.80;102594.69;6051282;19;20186;-70
2023/04/30 04:00:15;;;;;;;29.42;13.48;;;;;;;5.56;93.86;102592.13;6051506;19;20327;-70
2023/04/30 04:02:21;;;;;;;28.63;15.30;;;;;;;5.58;94.24;102588.66;6035161;19;20445;-68
2023/04/30 04:04:30;;;;;;;28.95;14.13;;;;;;;5.61;93.89;102579.94;6047409;19;20190;-70
2023/04/30 04:06:38;;;;;;;29.63;14.52;;;;;;;5.61;94.45;102573.03;6027713;19;20014;-69
2023/04/30 04:08:45;;;;;;;29.70;14.90;;;;;;;5.68;94.43;102576.53;6024843;19;20263;-70
2023/04/30 04:10:55;;;;;;;29.13;12.95;;;;;;;5.86;93.90;102571.47;6045450;19;20094;-70
2023/04/30 04:13:00;;;;;;;28.10;12.77;;;;;;;5.86;94.19;102574.06;6035238;19;20418;-69
2023/04/30 04:15:12;;;;;;;26.45;13.57;;;;;;;5.93;94.29;102575.00;6041965;19;20385;-69
2023/04/30 04:17:18;;;;;;;24.30;12.95;;;;;;;5.94;93.72;102574.16;6037719;19;20234;-70
2023/04/30 04:19:28;;;;;;;30.75;13.30;;;;;;;5.90;94.34;102581.06;6051723;19;20020;-70
2023/04/30 04:21:38;;;;;;;26.27;12.57;;;;;;;5.88;93.98;102579.31;6049955;19;20086;-70
2023/04/30 04:23:44;;;;;;;27.15;12.35;;;;;;;5.87;94.27;102590.59;6044612;19;20010;-70
2023/04/30 04:25:49;;;;;;;25.95;12.68;;;;;;;5.88;93.82;102593.22;6042758;19;20007;-68
2023/04/30 04:27:57;;;;;;;30.27;14.25;;;;;;;6.03;93.90;102587.28;6047757;19;20253;-68
2023/04/30 04:30:12;;;;;;;25.75;13.60;;;;;;;6.02;93.89;102590.72;6045875;19;20412;-68
2023/04/30 04:32:18;;;;;;;28.60;14.13;;;;;;;6.03;93.72;102591.59;6043603;19;20253;-67
2023/04/30 04:34:25;;;;;;;22.67;12.20;;;;;;;5.99;93.45;102588.09;6043546;19;20006;-69
2023/04/30 04:36:36;;;;;;;26.48;12.50;;;;;;;5.96;94.00;102595.06;6042527;19;20007;-68
2023/04/30 04:38:43;;;;;;;27.30;13.27;;;;;;;5.93;93.60;102595.88;6043086;19;20023;-69
2023/04/30 04:40:58;;;;;;;24.75;12.40;;;;;;;5.93;93.87;102595.88;6044448;19;20086;-69
2023/04/30 04:43:05;;;;;;;29.40;13.25;;;;;;;5.93;93.65;102594.16;6041582;19;20274;-68
2023/04/30 04:45:15;;;;;;;27.10;13.55;;;;;;;5.96;94.06;102603.75;6044606;19;20460;-68
2023/04/30 04:47:27;;;;;;;24.25;13.27;;;;;;;5.98;94.14;102611.56;6045649;19;20465;-68
2023/04/30 04:49:35;;;;;;;26.38;12.52;;;;;;;5.99;93.91;102608.13;6042784;19;20568;-68
2023/04/30 04:51:51;;;;;;;25.00;12.00;;;;;;;6.00;93.80;102602.88;6043765;19;20124;-68
2023/04/30 04:53:57;;;;;;;25.65;12.80;;;;;;;6.06;94.03;102609.91;6048167;19;20007;-68
2023/04/30 04:56:03;;;;;;;29.30;13.50;;;;;;;6.15;93.92;102607.34;6043655;19;20014;-68
2023/04/30 04:58:12;;;;;;;28.73;13.52;;;;;;;6.15;93.68;102600.38;6042760;19;20006;-68
2023/04/30 05:00:21;;;;;;;30.30;14.27;;;;;;;6.18;93.58;102606.50;6042070;19;20018;-68
2023/04/30 05:02:30;;;;;;;24.85;12.45;;;;;;;6.20;93.85;102604.78;6036579;19;20496;-70
2023/04/30 05:04:38;;;;;;;29.42;12.98;;;;;;;6.28;93.90;102608.28;6043864;19;20018;-68
2023/04/30 05:06:44;;;;;;;26.80;12.75;;;;;;;6.32;93.69;102605.72;6043137;19;20314;-68
2023/04/30 05:08:51;;;;;;;30.10;13.77;;;;;;;6.45;93.51;102618.81;6042280;19;20565;-68
2023/04/30 05:10:59;;;;;;;29.73;13.13;;;;;;;6.58;92.76;102615.41;6041837;19;20575;-68
2023/04/30 05:13:08;;;;;;;24.42;11.25;;;;;;;6.70;92.40;102612.00;6040424;19;20742;-68
2023/04/30 05:15:25;;;;;;;27.02;12.95;;;;;;;6.85;91.79;102612.06;6041672;19;20010;-69
2023/04/30 05:17:33;;;;;;;27.15;13.40;;;;;;;7.06;91.11;102615.56;6043499;19;20259;-69
2023/04/30 05:19:41;;;;;;;31.02;14.35;;;;;;;7.22;90.17;102614.75;6043365;19;20510;-69
2023/04/30 05:21:50;;;;;;;23.15;11.90;;;;;;;7.22;89.94;102610.41;6041467;19;20098;-69
2023/04/30 05:23:57;;;;;;;23.83;12.60;;;;;;;7.41;89.92;102611.28;6042512;19;20011;-69
2023/04/30 05:26:03;;;;;;;26.73;12.95;;;;;;;7.36;89.33;102606.94;6042726;19;20010;-69
2023/04/30 05:28:11;;;;;;;24.23;11.30;;;;;;;7.53;89.17;102610.44;6052739;19;20011;-69
2023/04/30 05:30:23;;;;;;;22.55;11.13;;;;;;;7.67;88.73;102603.47;6052791;19;20007;-69
2023/04/30 05:32:29;;;;;;;28.67;13.93;;;;;;;7.82;87.72;102605.22;6041206;19;20417;-68
2023/04/30 05:34:36;;;;;;;27.25;12.27;;;;;;;8.07;87.75;102610.41;6055667;19;20249;-68
2023/04/30 05:36:43;;;;;;;30.30;12.85;;;;;;;8.26;86.95;102609.47;6049466;19;20398;-68
2023/04/30 05:38:48;;;;;;;22.73;11.85;;;;;;;8.40;85.72;102611.22;6053178;19;20432;-70
2023/04/30 05:40:54;;;;;;;25.92;12.40;;;;;;;8.48;85.09;102607.72;6053839;19;20144;-70
2023/04/30 05:43:02;;;;;;;27.23;12.73;;;;;;;8.67;84.19;102611.13;6060946;19;20309;-69
2023/04/30 05:45:11;;;;;;;23.33;11.43;;;;;;;8.76;83.68;102608.47;6062705;19;20015;-68
2023/04/30 05:47:18;;;;;;;25.90;11.30;;;;;;;8.84;82.61;102611.06;6052609;19;20236;-69
2023/04/30 05:49:24;;;;;;;24.63;11.00;;;;;;;9.02;82.46;102610.97;6032860;19;20070;-69
2023/04/30 05:51:33;;;;;;;25.63;11.30;;;;;;;9.00;81.99;102602.25;6052746;19;20508;-68
2023/04/30 05:53:40;;;;;;;22.60;11.18;;;;;;;8.92;81.64;102605.78;6054306;19;20168;-68
2023/04/30 05:55:45;;;;;;;25.17;10.93;;;;;;;9.29;81.04;102609.03;6058047;19;20234;-68
2023/04/30 05:57:53;;;;;;;21.98;11.35;;;;;;;9.50;80.40;102607.16;6050315;19;20201;-68
2023/04/30 06:00:05;;;;;;;21.13;10.45;;;;;;;9.49;79.65;102605.41;6048927;19;20307;-68
2023/04/30 06:02:13;;;;;;;23.85;11.30;;;;;;;9.32;79.94;102606.44;6053447;19;20383;-67
2023/04/30 06:04:21;;;;;;;25.25;11.27;;;;;;;9.47;79.40;102605.41;6053203;19;20203;-71
2023/04/30 06:06:30;;;;;;;25.45;12.23;;;;;;;9.70;78.88;102604.38;6052363;19;20010;-69
2023/04/30 06:08:37;;;;;;;23.77;10.82;;;;;;;9.91;77.75;102608.56;6051958;19;20174;-69
2023/04/30 06:10:42;;;;;;;22.38;10.77;;;;;;;10.09;77.23;102603.13;6050456;19;20385;-69
2023/04/30 06:12:47;;;;;;;24.38;11.30;;;;;;;10.06;76.86;102606.66;6051141;19;20014;-69
2023/04/30 06:14:55;;;;;;;22.40;10.38;;;;;;;10.18;77.04;102612.66;6055562;19;20792;-69
2023/04/30 06:17:03;;;;;;;22.42;10.65;;;;;;;10.42;75.75;102614.19;6051859;19;20495;-70
2023/04/30 06:19:09;;;;;;;23.70;10.38;;;;;;;10.80;74.90;102612.88;6056477;19;20017;-69
2023/04/30 06:21:17;;;;;;;18.88;9.45;;;;;;;10.55;74.24;102614.03;6058529;19;20267;-69
2023/04/30 06:23:23;;;;;;;25.13;10.65;;;;;;;10.80;73.96;102611.09;6055571;19;20013;-69
2023/04/30 06:25:28;;;;;;;27.88;11.13;;;;;;;10.63;73.77;102615.69;6052540;19;20023;-69
2023/04/30 06:27:34;;;;;;;19.98;9.43;;;;;;;11.04;73.04;102609.03;6055749;19;20011;-70
2023/04/30 06:29:42;;;;;;;20.25;9.93;;;;;;;11.29;72.61;102607.75;6055573;19;20544;-69
2023/04/30 06:31:51;;;;;;;19.65;10.05;;;;;;;11.34;72.11;102611.19;6050871;19;20499;-69
2023/04/30 06:33:56;;;;;;;21.67;9.88;;;;;;;11.49;71.66;102604.84;6042930;19;20021;-69
2023/04/30 06:36:05;;;;;;;19.88;9.52;;;;;;;11.66;70.92;102604.53;6048107;19;20518;-68
2023/04/30 06:38:13;;;;;;;22.88;10.70;;;;;;;11.77;69.79;102601.72;6050274;19;20022;-69
2023/04/30 06:40:19;;;;;;;20.85;10.93;;;;;;;11.75;69.92;102606.19;6053589;19;20491;-69
2023/04/30 06:42:25;;;;;;;21.92;9.75;;;;;;;11.59;69.92;102605.56;6045942;19;20752;-69
2023/04/30 06:44:30;;;;;;;21.10;10.88;;;;;;;11.93;70.26;102610.25;6050428;19;20202;-68
2023/04/30 06:46:35;;;;;;;20.30;9.98;;;;;;;12.12;69.61;102606.41;6044127;19;20174;-68
2023/04/30 06:48:42;;;;;;;19.92;10.05;;;;;;;12.06;68.81;102612.66;6047526;19;20018;-69
2023/04/30 06:50:47;;;;;;;19.45;10.45;;;;;;;11.91;69.35;102607.66;6046560;19;20178;-70
2023/04/30 06:52:55;;;;;;;22.77;10.05;;;;;;;12.26;69.01;102614.91;6045280;19;20197;-68
2023/04/30 06:55:08;;;;;;;19.52;9.35;;;;;;;12.51;68.27;102609.19;6046915;19;20154;-69
2023/04/30 06:57:14;;;;;;;18.88;9.55;;;;;;;12.69;68.14;102610.53;6045261;19;20316;-68
2023/04/30 06:59:20;;;;;;;18.08;9.80;;;;;;;12.97;67.46;102608.19;6046278;19;20263;-69
2023/04/30 07:01:29;;;;;;;20.77;10.10;;;;;;;12.71;66.71;102606.13;6028293;19;20028;-69
2023/04/30 07:03:34;;;;;;;19.15;9.82;;;;;;;13.00;66.54;102605.47;6051587;19;20031;-69
2023/04/30 07:05:40;;;;;;;22.15;10.02;;;;;;;12.96;66.12;102602.06;6048037;19;20627;-70
2023/04/30 07:07:45;;;;;;;22.33;10.38;;;;;;;13.04;66.25;102612.44;6045355;19;20246;-69
2023/04/30 07:09:52;;;;;;;20.48;10.93;;;;;;;13.32;66.13;102609.19;6045682;19;20262;-69
2023/04/30 07:12:00;;;;;;;19.92;9.43;;;;;;;13.27;65.76;102616.34;6049114;19;20006;-69
2023/04/30 07:14:06;;;;;;;21.73;10.57;;;;;;;13.29;64.99;102615.41;6045912;19;20003;-69
2023/04/30 07:16:13;;;;;;;19.63;9.55;;;;;;;13.36;65.06;102618.78;6046948;19;20249;-69
2023/04/30 07:18:18;;;;;;;23.77;10.68;;;;;;;13.49;64.75;102619.34;6043766;19;20389;-69
2023/04/30 07:20:24;;;;;;;24.73;12.13;;;;;;;13.46;64.65;102620.28;6035419;19;20332;-69
2023/04/30 07:22:30;;;;;;;19.48;8.80;;;;;;;13.40;64.76;102625.69;6050519;19;20615;-69
2023/04/30 07:24:36;;;;;;;19.75;10.23;;;;;;;13.48;64.32;102622.88;6046795;19;20285;-69
2023/04/30 07:26:42;;;;;;;23.20;10.13;;;;;;;13.96;64.06;102619.94;6050191;19;20324;-69
2023/04/30 07:28:54;;;;;;;22.48;11.43;;;;;;;14.08;63.83;102626.66;6046793;19;20277;-69
2023/04/30 07:30:59;;;;;;;20.10;9.63;;;;;;;13.94;64.00;102617.31;6048245;19;20098;-69
2023/04/30 07:33:04;;;;;;;22.42;9.77;;;;;;;13.87;63.55;102618.38;6044251;19;20194;-69
2023/04/30 07:35:11;;;;;;;23.70;10.65;;;;;;;14.27;63.18;102622.63;6050304;19;20227;-69
2023/04/30 07:37:17;;;;;;;21.10;9.18;;;;;;;14.08;62.50;102622.22;6045624;19;20032;-69
2023/04/30 07:39:22;;;;;;;19.67;9.43;;;;;;;13.98;62.42;102624.28;6046738;19;20072;-69
2023/04/30 07:41:29;;;;;;;19.33;9.73;;;;;;;14.10;62.65;102623.06;6043606;19;20627;-69
2023/04/30 07:43:34;;;;;;;19.33;10.68;;;;;;;14.17;62.20;102621.16;6047759;19;20011;-69
2023/04/30 07:45:43;;;;;;;18.38;8.82;;;;;;;14.50;61.80;102614.03;6046772;19;20227;-71
2023/04/30 07:47:48;;;;;;;19.58;9.57;;;;;;;14.61;61.23;102616.41;6045027;19;20434;-73
2023/04/30 07:49:54;;;;;;;22.20;9.60;;;;;;;14.78;60.64;102619.44;6047070;19;20196;-71
2023/04/30 07:52:00;;;;;;;17.20;9.02;;;;;;;14.88;60.15;102620.03;6052003;19;20584;-71
2023/04/30 07:54:06;;;;;;;20.67;8.90;;;;;;;14.77;59.98;102617.69;6050809;19;20082;-71
2023/04/30 07:56:12;;;;;;;20.25;10.32;;;;;;;14.73;60.32;102621.34;6052954;19;20285;-71
2023/04/30 07:58:18;;;;;;;22.98;10.10;;;;;;;15.04;59.65;102625.72;6057263;19;20759;-71
2023/04/30 08:00:25;;;;;;;21.08;9.77;;;;;;;15.01;59.77;102624.03;6050954;19;20599;-73
2023/04/30 08:02:33;;;;;;;20.27;9.88;;;;;;;14.99;59.62;102617.06;6054205;19;20508;-71
2023/04/30 08:04:39;;;;;;;19.23;9.07;;;;;;;15.16;58.98;102622.69;6050886;19;20006;-71
2023/04/30 08:06:44;;;;;;;18.48;8.77;;;;;;;15.53;58.12;102622.38;6052843;19;20319;-72
2023/04/30 08:08:49;;;;;;;19.40;8.82;;;;;;;15.73;58.10;102619.09;6045772;19;20182;-71
2023/04/30 08:10:55;;;;;;;17.55;8.75;;;;;;;15.39;57.44;102616.66;6048652;19;20294;-72
2023/04/30 08:13:00;;;;;;;16.60;8.38;;;;;;;15.16;58.48;102617.38;6051340;19;20302;-71
2023/04/30 08:15:07;;;;;;;18.25;8.95;;;;;;;15.61;56.95;102618.59;6048079;19;20352;-72
2023/04/30 08:17:13;;;;;;;16.92;8.52;;;;;;;15.50;57.53;102622.47;6045744;19;20278;-71
2023/04/30 08:19:21;;;;;;;17.85;8.50;;;;;;;15.82;57.17;102614.38;6057097;19;20029;-71
2023/04/30 08:21:30;;;;;;;20.73;9.65;;;;;;;15.68;56.95;102613.03;6054263;19;20604;-72
2023/04/30 08:23:35;;;;;;;19.40;10.23;;;;;;;15.50;58.64;102613.66;6057838;19;20433;-72
2023/04/30 08:25:41;;;;;;;19.58;11.05;;;;;;;15.63;58.49;102614.97;6055553;19;20456;-71
2023/04/30 08:27:46;;;;;;;19.23;9.68;;;;;;;16.04;57.68;102610.09;6054680;19;20163;-72
2023/04/30 08:29:52;;;;;;;20.20;9.63;;;;;;;16.36;57.05;102616.88;6057751;19;20431;-72
2023/04/30 08:32:00;;;;;;;17.98;9.82;;;;;;;16.17;57.53;102614.03;6053008;19;20007;-72
2023/04/30 08:34:05;;;;;;;17.58;8.90;;;;;;;16.70;56.90;102609.47;6048764;19;20303;-72
2023/04/30 08:36:14;;;;;;;18.85;10.48;;;;;;;16.57;56.27;102615.22;6048953;19;20190;-73
2023/04/30 08:38:19;;;;;;;18.58;8.98;;;;;;;16.74;55.33;102611.06;6050260;19;20458;-73
2023/04/30 08:40:25;;;;;;;18.63;8.77;;;;;;;16.57;55.43;102614.38;6045355;19;20372;-71
2023/04/30 08:42:52;;;;;;;;;;;;;;;16.61;56.46;102606.25;6057501;19;20082;-71
2023/04/30 08:44:57;;;;;;;18.38;9.65;;;;;;;16.75;55.42;102607.50;6054929;19;20364;-71
2023/04/30 08:47:05;;;;;;;16.42;9.18;;;;;;;17.17;54.45;102615.63;6053459;19;20006;-70
2023/04/30 08:49:13;;;;;;;15.52;9.02;;;;;;;17.00;54.24;102612.75;6057853;19;20291;-71
2023/04/30 08:51:22;;;;;;;17.13;8.50;;;;;;;16.84;54.63;102609.81;6049649;19;20661;-74
2023/04/30 08:53:27;;;;;;;13.20;7.30;;;;;;;17.20;54.56;102609.31;6051730;19;20145;-72
2023/04/30 08:55:36;;;;;;;17.52;8.65;;;;;;;16.95;54.18;102610.25;6050870;19;20423;-72
2023/04/30 08:57:41;;;;;;;17.05;9.07;;;;;;;17.28;54.01;102608.06;6050289;19;20685;-71
2023/04/30 08:59:47;;;;;;;21.92;9.05;;;;;;;17.10;54.02;102608.81;6055909;19;20519;-72
2023/04/30 09:01:54;;;;;;;15.98;8.90;;;;;;;17.22;53.61;102608.34;6057601;19;20477;-72
2023/04/30 09:04:00;;;;;;;15.73;8.48;;;;;;;17.44;52.63;102602.13;6059867;19;20086;-72
2023/04/30 09:06:06;;;;;;;16.77;7.88;;;;;;;17.34;52.99;102598.97;6055767;19;20314;-72
2023/04/30 09:08:19;;;;;;;18.00;8.52;;;;;;;17.13;53.28;102608.69;6059916;19;20239;-71
2023/04/30 09:10:25;;;;;;;14.35;7.40;;;;;;;17.42;52.73;102610.16;6056670;19;20014;-72
2023/04/30 09:12:30;;;;;;;16.63;7.93;;;;;;;17.46;51.84;102605.59;6057166;19;20167;-71
2023/04/30 09:14:39;;;;;;;15.43;7.30;;;;;;;17.41;52.39;102595.16;6054664;19;20483;-71
2023/04/30 09:16:48;;;;;;;14.80;7.22;;;;;;;17.47;52.16;102608.19;6052229;19;20438;-72
2023/04/30 09:18:55;;;;;;;13.73;7.43;;;;;;;17.65;51.54;102597.72;6059384;19;20414;-72
2023/04/30 09:21:02;;;;;;;14.80;7.68;;;;;;;17.72;51.43;102602.72;6058811;19;20345;-72
2023/04/30 09:23:09;;;;;;;14.27;7.13;;;;;;;17.55;50.81;102605.19;6062062;19;20040;-72
2023/04/30 09:25:17;;;;;;;13.80;7.47;;;;;;;17.77;50.77;102600.72;6060098;19;20094;-72
2023/04/30 09:27:24;;;;;;;14.68;7.25;;;;;;;17.90;50.96;102603.72;6051742;19;20027;-72
2023/04/30 09:29:38;;;;;;;12.40;6.95;;;;;;;17.88;50.22;102600.28;6046581;19;20194;-72
2023/04/30 09:31:47;;;;;;;14.13;7.25;;;;;;;17.76;51.37;102603.44;6054733;19;20500;-71
2023/04/30 09:33:52;;;;;;;13.70;7.15;;;;;;;17.66;50.96;102589.66;6049340;19;20189;-72
2023/04/30 09:35:57;;;;;;;13.60;7.25;;;;;;;17.64;51.48;102593.31;6056986;19;20189;-71
2023/04/30 09:38:04;;;;;;;12.68;6.85;;;;;;;17.78;51.58;102596.25;6053188;19;20552;-71
2023/04/30 09:40:11;;;;;;;12.88;7.47;;;;;;;18.03;51.44;102603.19;6051979;19;20277;-71
2023/04/30 09:42:22;;;;;;;13.85;7.53;;;;;;;17.68;51.68;102603.75;6047164;19;20339;-71
2023/04/30 09:44:30;;;;;;;15.45;7.28;;;;;;;18.05;51.28;102606.66;6052243;19;20053;-71
2023/04/30 09:46:37;;;;;;;13.02;6.85;;;;;;;18.18;50.81;102607.84;6052141;19;20778;-72